« Back
NWS Peachtree City, Ga » Text Product » AHN Terminal Aerodrome Forecast


Printer-friendly Version
Current Version              Previous Versions:   1  2  3  4  5  6  7  8  9  

Terminal Aerodrome Forecast

806
FTUS42 KFFC 300520
TAFAHN
TAF
KAHN 300520Z 3006/3106 08004KT P6SM SCT030 BKN080
     FM301100 07007KT P6SM -SHRA BKN030 OVC080
     FM301800 09008KT P6SM VCSH BKN040 PROB30 3018/3022 5SM TSRA
      BKN025CB
     FM310100 09005KT P6SM SCT025 BKN100=

USA.gov is the U.S. government's official web portal to all federal, state and local government web resources and services.